TNO1122 TXKF-KCHS
Flight info
| Callsign | TNO1122 |
|---|---|
| Flight time | 2h 16m |
| Altitude | 36000 |
| Route | SOMRR1 ENAPI DCT BEXUM DCT WILYY DCT OTTNG/N0458F360 DCT DIZNY Y436 PITRW |
| Aircraft | A319/M-SDE3FGHIRWY/LB1 |
Departure
| Time | 2026-04-30 09:03 |
|---|---|
| Airport | L.F. Wade International Airport (TXKF) |
Arrival
| Time | 2026-04-30 11:19 |
|---|---|
| Airport | Charleston International Airport (KCHS) |
| Time | Latitude | Longitude | Altitude | Speed | Heading |
|---|---|---|---|---|---|
| 2026-04-30 08:52 | 32.35587 | -64.70412 | 24 ft | 0 kts | 147° |
| 2026-04-30 08:55 | 32.35592 | -64.70416 | 24 ft | 2 kts | 147° |
| 2026-04-30 08:55 | 32.35606 | -64.70428 | 24 ft | 3 kts | 137° |
| 2026-04-30 08:55 | 32.35619 | -64.70445 | 24 ft | 3 kts | 127° |
| 2026-04-30 08:55 | 32.35630 | -64.70466 | 24 ft | 3 kts | 116° |
| 2026-04-30 08:56 | 32.35635 | -64.70476 | 24 ft | 3 kts | 92° |
| 2026-04-30 08:56 | 32.35707 | -64.70414 | 24 ft | 27 kts | 32° |
| 2026-04-30 08:56 | 32.35883 | -64.70336 | 24 ft | 24 kts | 7° |
| 2026-04-30 08:56 | 32.36015 | -64.70271 | 24 ft | 23 kts | 52° |
| 2026-04-30 08:57 | 32.36099 | -64.70133 | 24 ft | 22 kts | 55° |
| 2026-04-30 08:57 | 32.36215 | -64.69926 | 24 ft | 34 kts | 57° |
| 2026-04-30 08:57 | 32.36327 | -64.69721 | 24 ft | 27 kts | 57° |
| 2026-04-30 08:57 | 32.36426 | -64.69545 | 24 ft | 23 kts | 56° |
| 2026-04-30 08:58 | 32.36531 | -64.69362 | 24 ft | 34 kts | 55° |
| 2026-04-30 08:58 | 32.36661 | -64.69121 | 24 ft | 31 kts | 58° |
| 2026-04-30 08:58 | 32.36756 | -64.68930 | 24 ft | 23 kts | 84° |
| 2026-04-30 08:58 | 32.36734 | -64.68754 | 24 ft | 22 kts | 101° |
| 2026-04-30 08:59 | 32.36699 | -64.68567 | 24 ft | 25 kts | 102° |
| 2026-04-30 08:59 | 32.36663 | -64.68340 | 24 ft | 30 kts | 101° |
| 2026-04-30 08:59 | 32.36618 | -64.68089 | 24 ft | 32 kts | 101° |
| 2026-04-30 08:59 | 32.36575 | -64.67829 | 24 ft | 33 kts | 101° |
| 2026-04-30 09:00 | 32.36526 | -64.67553 | 24 ft | 35 kts | 102° |
| 2026-04-30 09:00 | 32.36476 | -64.67264 | 24 ft | 36 kts | 101° |
| 2026-04-30 09:00 | 32.36432 | -64.67010 | 24 ft | 30 kts | 101° |
| 2026-04-30 09:00 | 32.36392 | -64.66777 | 24 ft | 27 kts | 101° |
| 2026-04-30 09:01 | 32.36356 | -64.66570 | 24 ft | 24 kts | 102° |
| 2026-04-30 09:01 | 32.36324 | -64.66393 | 24 ft | 19 kts | 105° |
| 2026-04-30 09:01 | 32.36234 | -64.66366 | 24 ft | 13 kts | 192° |
| 2026-04-30 09:01 | 32.36159 | -64.66393 | 24 ft | 10 kts | 224° |
| 2026-04-30 09:02 | 32.36177 | -64.66550 | 24 ft | 51 kts | 281° |
| 2026-04-30 09:02 | 32.36327 | -64.67418 | 24 ft | 163 kts | 282° |
| 2026-04-30 09:02 | 32.36611 | -64.69058 | 507 ft | 229 kts | 282° |
| 2026-04-30 09:03 | 32.36928 | -64.70819 | 749 ft | 214 kts | 282° |
| 2026-04-30 09:03 | 32.37223 | -64.72544 | 1186 ft | 216 kts | 282° |
| 2026-04-30 09:03 | 32.37522 | -64.74313 | 1557 ft | 220 kts | 282° |
| 2026-04-30 09:03 | 32.37820 | -64.76102 | 1944 ft | 222 kts | 282° |
| 2026-04-30 09:04 | 32.38124 | -64.77902 | 2377 ft | 224 kts | 283° |
| 2026-04-30 09:04 | 32.38459 | -64.79706 | 2890 ft | 224 kts | 285° |
| 2026-04-30 09:04 | 32.38847 | -64.81477 | 3396 ft | 225 kts | 287° |
| 2026-04-30 09:04 | 32.39275 | -64.83267 | 3895 ft | 227 kts | 288° |
| 2026-04-30 09:05 | 32.39724 | -64.85062 | 4396 ft | 228 kts | 288° |
| 2026-04-30 09:05 | 32.40178 | -64.86840 | 4890 ft | 230 kts | 289° |
| 2026-04-30 09:05 | 32.40658 | -64.88698 | 5400 ft | 232 kts | 289° |
| 2026-04-30 09:05 | 32.41136 | -64.90537 | 5907 ft | 234 kts | 289° |
| 2026-04-30 09:06 | 32.41614 | -64.92373 | 6401 ft | 236 kts | 289° |
| 2026-04-30 09:06 | 32.42101 | -64.94242 | 6902 ft | 239 kts | 289° |
| 2026-04-30 09:06 | 32.42591 | -64.96129 | 7406 ft | 241 kts | 289° |
| 2026-04-30 09:06 | 32.43088 | -64.98037 | 7904 ft | 244 kts | 289° |
| 2026-04-30 09:07 | 32.43588 | -64.99964 | 8409 ft | 246 kts | 289° |
| 2026-04-30 09:07 | 32.44093 | -65.01912 | 8910 ft | 249 kts | 289° |
| 2026-04-30 09:07 | 32.44602 | -65.03878 | 9412 ft | 251 kts | 289° |
| 2026-04-30 09:07 | 32.45117 | -65.05867 | 9915 ft | 254 kts | 289° |
| 2026-04-30 09:08 | 32.45636 | -65.07874 | 10416 ft | 256 kts | 289° |
| 2026-04-30 09:08 | 32.46158 | -65.09898 | 10921 ft | 258 kts | 289° |
| 2026-04-30 09:08 | 32.46679 | -65.11916 | 11413 ft | 260 kts | 289° |
| 2026-04-30 09:08 | 32.47210 | -65.13975 | 11916 ft | 263 kts | 289° |
| 2026-04-30 09:09 | 32.47745 | -65.16053 | 12419 ft | 264 kts | 288° |
| 2026-04-30 09:09 | 32.48284 | -65.18146 | 12923 ft | 266 kts | 288° |
| 2026-04-30 09:09 | 32.48826 | -65.20252 | 13426 ft | 268 kts | 288° |
| 2026-04-30 09:09 | 32.49369 | -65.22367 | 13928 ft | 269 kts | 288° |
| 2026-04-30 09:10 | 32.49914 | -65.24490 | 14431 ft | 270 kts | 288° |
| 2026-04-30 09:10 | 32.50461 | -65.26622 | 14932 ft | 271 kts | 288° |
| 2026-04-30 09:10 | 32.51010 | -65.28764 | 15436 ft | 271 kts | 288° |
| 2026-04-30 09:10 | 32.51559 | -65.30911 | 15939 ft | 272 kts | 288° |
| 2026-04-30 09:11 | 32.52102 | -65.33031 | 16432 ft | 273 kts | 288° |
| 2026-04-30 09:11 | 32.52654 | -65.35189 | 16934 ft | 274 kts | 287° |
| 2026-04-30 09:11 | 32.53207 | -65.37352 | 17435 ft | 275 kts | 287° |
| 2026-04-30 09:11 | 32.53761 | -65.39525 | 17937 ft | 276 kts | 287° |
| 2026-04-30 09:12 | 32.54318 | -65.41707 | 18434 ft | 277 kts | 287° |
| 2026-04-30 09:12 | 32.54884 | -65.43905 | 18928 ft | 280 kts | 286° |
| 2026-04-30 09:12 | 32.55453 | -65.46137 | 19435 ft | 284 kts | 285° |
| 2026-04-30 09:12 | 32.56024 | -65.48388 | 19938 ft | 286 kts | 285° |
| 2026-04-30 09:13 | 32.56600 | -65.50664 | 20442 ft | 288 kts | 285° |
| 2026-04-30 09:13 | 32.57179 | -65.52954 | 20946 ft | 290 kts | 285° |
| 2026-04-30 09:13 | 32.57762 | -65.55259 | 21448 ft | 292 kts | 285° |
| 2026-04-30 09:13 | 32.58347 | -65.57571 | 21952 ft | 294 kts | 285° |
| 2026-04-30 09:14 | 32.58936 | -65.59900 | 22452 ft | 295 kts | 285° |
| 2026-04-30 09:14 | 32.59531 | -65.62235 | 22953 ft | 297 kts | 285° |
| 2026-04-30 09:14 | 32.60125 | -65.64555 | 23448 ft | 298 kts | 285° |
| 2026-04-30 09:14 | 32.60730 | -65.66915 | 23950 ft | 300 kts | 285° |
| 2026-04-30 09:15 | 32.61340 | -65.69292 | 24452 ft | 301 kts | 285° |
| 2026-04-30 09:15 | 32.61954 | -65.71685 | 24955 ft | 303 kts | 285° |
| 2026-04-30 09:15 | 32.62568 | -65.74077 | 25431 ft | 306 kts | 285° |
| 2026-04-30 09:15 | 32.63200 | -65.76546 | 25843 ft | 318 kts | 285° |
| 2026-04-30 09:16 | 32.63851 | -65.79096 | 26237 ft | 332 kts | 285° |
| 2026-04-30 09:16 | 32.64533 | -65.81770 | 26625 ft | 341 kts | 285° |
| 2026-04-30 09:16 | 32.65221 | -65.84462 | 27001 ft | 345 kts | 285° |
| 2026-04-30 09:16 | 32.65924 | -65.87213 | 27382 ft | 348 kts | 285° |
| 2026-04-30 09:17 | 32.66629 | -65.89972 | 27760 ft | 351 kts | 285° |
| 2026-04-30 09:17 | 32.67330 | -65.92721 | 28133 ft | 353 kts | 285° |
| 2026-04-30 09:17 | 32.68049 | -65.95542 | 28513 ft | 356 kts | 285° |
| 2026-04-30 09:17 | 32.68763 | -65.98348 | 28888 ft | 358 kts | 285° |
| 2026-04-30 09:18 | 32.69484 | -66.01182 | 29264 ft | 359 kts | 285° |
| 2026-04-30 09:18 | 32.70210 | -66.04043 | 29641 ft | 361 kts | 285° |
| 2026-04-30 09:18 | 32.70938 | -66.06914 | 30019 ft | 363 kts | 285° |
| 2026-04-30 09:18 | 32.71660 | -66.09762 | 30391 ft | 365 kts | 285° |
| 2026-04-30 09:19 | 32.72394 | -66.12663 | 30768 ft | 367 kts | 285° |
| 2026-04-30 09:19 | 32.73132 | -66.15582 | 31146 ft | 368 kts | 285° |
| 2026-04-30 09:19 | 32.73871 | -66.18509 | 31523 ft | 370 kts | 285° |
| 2026-04-30 09:19 | 32.74603 | -66.21412 | 31895 ft | 371 kts | 285° |
| 2026-04-30 09:20 | 32.75346 | -66.24362 | 32272 ft | 373 kts | 285° |
| 2026-04-30 09:20 | 32.76091 | -66.27321 | 32648 ft | 374 kts | 285° |
| 2026-04-30 09:20 | 32.76840 | -66.30298 | 33024 ft | 376 kts | 285° |
| 2026-04-30 09:20 | 32.77588 | -66.33279 | 33400 ft | 377 kts | 285° |
| 2026-04-30 09:21 | 32.78340 | -66.36275 | 33776 ft | 378 kts | 285° |
| 2026-04-30 09:21 | 32.79083 | -66.39245 | 34148 ft | 379 kts | 285° |
| 2026-04-30 09:21 | 32.79838 | -66.42262 | 34524 ft | 381 kts | 285° |
| 2026-04-30 09:21 | 32.80594 | -66.45289 | 34899 ft | 383 kts | 285° |
| 2026-04-30 09:22 | 32.81357 | -66.48348 | 35277 ft | 384 kts | 286° |
| 2026-04-30 09:22 | 32.82109 | -66.51364 | 35640 ft | 386 kts | 286° |
| 2026-04-30 09:22 | 32.82880 | -66.54463 | 35795 ft | 394 kts | 286° |
| 2026-04-30 09:22 | 32.83665 | -66.57618 | 35874 ft | 401 kts | 286° |
| 2026-04-30 09:23 | 32.85247 | -66.63985 | 35879 ft | 402 kts | 286° |
| 2026-04-30 09:23 | 32.86826 | -66.70351 | 35880 ft | 400 kts | 286° |
| 2026-04-30 09:24 | 32.88401 | -66.76718 | 35880 ft | 400 kts | 286° |
| 2026-04-30 09:24 | 32.89965 | -66.83057 | 35881 ft | 400 kts | 286° |
| 2026-04-30 09:25 | 32.91535 | -66.89437 | 35881 ft | 400 kts | 286° |
| 2026-04-30 09:25 | 32.93088 | -66.95768 | 35881 ft | 401 kts | 286° |
| 2026-04-30 09:26 | 32.94650 | -67.02149 | 35882 ft | 401 kts | 286° |
| 2026-04-30 09:26 | 32.96202 | -67.08503 | 35882 ft | 401 kts | 286° |
| 2026-04-30 09:27 | 32.97758 | -67.14893 | 35881 ft | 401 kts | 286° |
| 2026-04-30 09:27 | 32.99305 | -67.21258 | 35877 ft | 401 kts | 286° |
| 2026-04-30 09:28 | 33.00852 | -67.27643 | 35877 ft | 401 kts | 286° |
| 2026-04-30 09:28 | 33.02396 | -67.34029 | 35877 ft | 401 kts | 286° |
| 2026-04-30 09:29 | 33.03680 | -67.39352 | 35877 ft | 401 kts | 286° |
| 2026-04-30 09:29 | 33.05227 | -67.45776 | 35877 ft | 401 kts | 286° |
| 2026-04-30 09:30 | 33.06751 | -67.52128 | 35877 ft | 401 kts | 286° |
| 2026-04-30 09:30 | 33.08286 | -67.58534 | 35877 ft | 401 kts | 286° |
| 2026-04-30 09:31 | 33.09815 | -67.64938 | 35877 ft | 401 kts | 287° |
| 2026-04-30 09:31 | 33.11342 | -67.71344 | 35877 ft | 401 kts | 286° |
| 2026-04-30 09:32 | 33.12865 | -67.77753 | 35877 ft | 401 kts | 287° |
| 2026-04-30 09:32 | 33.14385 | -67.84169 | 35877 ft | 401 kts | 287° |
| 2026-04-30 09:33 | 33.15896 | -67.90555 | 35877 ft | 401 kts | 287° |
| 2026-04-30 09:33 | 33.17408 | -67.96971 | 35877 ft | 402 kts | 287° |
| 2026-04-30 09:34 | 33.18917 | -68.03395 | 35877 ft | 401 kts | 287° |
| 2026-04-30 09:34 | 33.20215 | -68.09877 | 35877 ft | 402 kts | 282° |
| 2026-04-30 09:35 | 33.20961 | -68.16511 | 35877 ft | 403 kts | 278° |
| 2026-04-30 09:35 | 33.21465 | -68.23132 | 35876 ft | 403 kts | 277° |
| 2026-04-30 09:36 | 33.21886 | -68.29803 | 35876 ft | 402 kts | 277° |
| 2026-04-30 09:36 | 33.22281 | -68.36475 | 35876 ft | 402 kts | 277° |
| 2026-04-30 09:37 | 33.22670 | -68.43144 | 35875 ft | 402 kts | 277° |
| 2026-04-30 09:37 | 33.23057 | -68.49799 | 35875 ft | 401 kts | 277° |
| 2026-04-30 09:38 | 33.23444 | -68.56418 | 35875 ft | 401 kts | 277° |
| 2026-04-30 09:38 | 33.23833 | -68.63082 | 35875 ft | 400 kts | 277° |
| 2026-04-30 09:39 | 33.24219 | -68.69703 | 35875 ft | 400 kts | 277° |
| 2026-04-30 09:39 | 33.24600 | -68.76292 | 35874 ft | 399 kts | 277° |
| 2026-04-30 09:40 | 33.24982 | -68.82933 | 35874 ft | 399 kts | 277° |
| 2026-04-30 09:40 | 33.25359 | -68.89557 | 35873 ft | 398 kts | 277° |
| 2026-04-30 09:41 | 33.25732 | -68.96145 | 35873 ft | 398 kts | 277° |
| 2026-04-30 09:41 | 33.26100 | -69.02716 | 35872 ft | 397 kts | 277° |
| 2026-04-30 09:42 | 33.26465 | -69.09277 | 35872 ft | 396 kts | 277° |
| 2026-04-30 09:42 | 33.26826 | -69.15838 | 35866 ft | 396 kts | 277° |
| 2026-04-30 09:43 | 33.27184 | -69.22411 | 35866 ft | 395 kts | 277° |
| 2026-04-30 09:43 | 33.27536 | -69.28928 | 35865 ft | 394 kts | 277° |
| 2026-04-30 09:44 | 33.27886 | -69.35473 | 35864 ft | 393 kts | 277° |
| 2026-04-30 09:44 | 33.28229 | -69.41964 | 35864 ft | 392 kts | 277° |
| 2026-04-30 09:45 | 33.28570 | -69.48465 | 35863 ft | 392 kts | 277° |
| 2026-04-30 09:45 | 33.28908 | -69.54974 | 35851 ft | 391 kts | 277° |
| 2026-04-30 09:46 | 33.29240 | -69.61450 | 35846 ft | 390 kts | 277° |
| 2026-04-30 09:46 | 33.29567 | -69.67896 | 35845 ft | 389 kts | 277° |
| 2026-04-30 09:47 | 33.29893 | -69.74381 | 35844 ft | 389 kts | 277° |
| 2026-04-30 09:47 | 33.29712 | -69.80848 | 35845 ft | 395 kts | 266° |
| 2026-04-30 09:48 | 33.28471 | -69.87278 | 35844 ft | 400 kts | 261° |
| 2026-04-30 09:48 | 33.26820 | -69.93628 | 35842 ft | 401 kts | 258° |
| 2026-04-30 09:49 | 33.25031 | -69.99934 | 35840 ft | 402 kts | 257° |
| 2026-04-30 09:49 | 33.23196 | -70.06232 | 35834 ft | 401 kts | 258° |
| 2026-04-30 09:50 | 33.21361 | -70.12505 | 35832 ft | 400 kts | 258° |
| 2026-04-30 09:50 | 33.19532 | -70.18765 | 35832 ft | 400 kts | 258° |
| 2026-04-30 09:51 | 33.17706 | -70.25030 | 35831 ft | 400 kts | 258° |
| 2026-04-30 09:51 | 33.15882 | -70.31295 | 35830 ft | 400 kts | 258° |
| 2026-04-30 09:52 | 33.14061 | -70.37552 | 35830 ft | 400 kts | 258° |
| 2026-04-30 09:52 | 33.12234 | -70.43824 | 35830 ft | 401 kts | 258° |
| 2026-04-30 09:53 | 33.10403 | -70.50105 | 35829 ft | 401 kts | 258° |
| 2026-04-30 09:53 | 33.08569 | -70.56386 | 35828 ft | 401 kts | 258° |
| 2026-04-30 09:54 | 33.06731 | -70.62670 | 35827 ft | 401 kts | 258° |
| 2026-04-30 09:54 | 33.04891 | -70.68951 | 35827 ft | 401 kts | 257° |
| 2026-04-30 09:55 | 33.03056 | -70.75197 | 35841 ft | 401 kts | 257° |
| 2026-04-30 09:55 | 33.01207 | -70.81480 | 35843 ft | 402 kts | 257° |
| 2026-04-30 09:56 | 32.99351 | -70.87774 | 35842 ft | 402 kts | 257° |
| 2026-04-30 09:56 | 32.97495 | -70.94054 | 35842 ft | 402 kts | 257° |
| 2026-04-30 09:57 | 32.95632 | -71.00341 | 35842 ft | 402 kts | 257° |
| 2026-04-30 09:57 | 32.93768 | -71.06623 | 35850 ft | 402 kts | 257° |
| 2026-04-30 09:58 | 32.91910 | -71.12872 | 35853 ft | 403 kts | 257° |
| 2026-04-30 09:58 | 32.90032 | -71.19172 | 35852 ft | 402 kts | 257° |
| 2026-04-30 09:59 | 32.86280 | -71.31725 | 35851 ft | 402 kts | 257° |
| 2026-04-30 10:00 | 32.83468 | -71.41095 | 35844 ft | 403 kts | 257° |
| 2026-04-30 10:01 | 32.80632 | -71.50522 | 35833 ft | 403 kts | 257° |
| 2026-04-30 10:02 | 32.77791 | -71.59936 | 35833 ft | 404 kts | 257° |
| 2026-04-30 10:02 | 32.75891 | -71.66216 | 35833 ft | 404 kts | 257° |
| 2026-04-30 10:03 | 32.73996 | -71.72460 | 35832 ft | 404 kts | 257° |
| 2026-04-30 10:03 | 32.72084 | -71.78753 | 35832 ft | 405 kts | 257° |
| 2026-04-30 10:04 | 32.70167 | -71.85045 | 35831 ft | 405 kts | 257° |
| 2026-04-30 10:04 | 32.68241 | -71.91358 | 35831 ft | 405 kts | 257° |
| 2026-04-30 10:05 | 32.66330 | -71.97605 | 35832 ft | 406 kts | 257° |
| 2026-04-30 10:05 | 32.64400 | -72.03902 | 35833 ft | 405 kts | 257° |
| 2026-04-30 10:06 | 32.62471 | -72.10184 | 35831 ft | 405 kts | 257° |
| 2026-04-30 10:06 | 32.60539 | -72.16462 | 35831 ft | 405 kts | 257° |
| 2026-04-30 10:07 | 32.58605 | -72.22735 | 35833 ft | 405 kts | 257° |
| 2026-04-30 10:07 | 32.56673 | -72.28985 | 35838 ft | 405 kts | 257° |
| 2026-04-30 10:08 | 32.54729 | -72.35264 | 35838 ft | 405 kts | 257° |
| 2026-04-30 10:08 | 32.52795 | -72.41499 | 35838 ft | 405 kts | 257° |
| 2026-04-30 10:09 | 32.50841 | -72.47786 | 35837 ft | 405 kts | 257° |
| 2026-04-30 10:09 | 32.48900 | -72.54017 | 35837 ft | 405 kts | 257° |
| 2026-04-30 10:10 | 32.46941 | -72.60293 | 35845 ft | 405 kts | 257° |
| 2026-04-30 10:10 | 32.44986 | -72.66545 | 35850 ft | 404 kts | 257° |
| 2026-04-30 10:11 | 32.43037 | -72.72763 | 35850 ft | 404 kts | 257° |
| 2026-04-30 10:11 | 32.41073 | -72.79017 | 35850 ft | 404 kts | 257° |
| 2026-04-30 10:12 | 32.39120 | -72.85224 | 35850 ft | 404 kts | 257° |
| 2026-04-30 10:12 | 32.37151 | -72.91472 | 35850 ft | 404 kts | 256° |
| 2026-04-30 10:13 | 32.35189 | -72.97685 | 35850 ft | 404 kts | 256° |
| 2026-04-30 10:13 | 32.33216 | -73.03917 | 35850 ft | 404 kts | 256° |
| 2026-04-30 10:14 | 32.31630 | -73.10241 | 35852 ft | 397 kts | 264° |
| 2026-04-30 10:14 | 32.30667 | -73.19864 | 35840 ft | 393 kts | 270° |
| 2026-04-30 10:15 | 32.30322 | -73.26307 | 35814 ft | 392 kts | 271° |
| 2026-04-30 10:15 | 32.30033 | -73.32702 | 35814 ft | 392 kts | 271° |
| 2026-04-30 10:16 | 32.29748 | -73.39160 | 35815 ft | 392 kts | 271° |
| 2026-04-30 10:17 | 32.29309 | -73.48806 | 35816 ft | 393 kts | 271° |
| 2026-04-30 10:17 | 32.28848 | -73.58474 | 35815 ft | 394 kts | 271° |
| 2026-04-30 10:18 | 32.28584 | -73.63852 | 35815 ft | 394 kts | 271° |
| 2026-04-30 10:19 | 32.28097 | -73.73565 | 35815 ft | 394 kts | 271° |
| 2026-04-30 10:19 | 32.27765 | -73.80063 | 35815 ft | 395 kts | 271° |
| 2026-04-30 10:20 | 32.27431 | -73.86516 | 35816 ft | 395 kts | 271° |
| 2026-04-30 10:20 | 32.26920 | -73.96229 | 35815 ft | 396 kts | 271° |
| 2026-04-30 10:21 | 32.26575 | -74.02720 | 35815 ft | 396 kts | 270° |
| 2026-04-30 10:21 | 32.26225 | -74.09227 | 35815 ft | 395 kts | 270° |
| 2026-04-30 10:22 | 32.25875 | -74.15675 | 35814 ft | 395 kts | 270° |
| 2026-04-30 10:22 | 32.25518 | -74.22176 | 35814 ft | 395 kts | 270° |
| 2026-04-30 10:23 | 32.25160 | -74.28627 | 35814 ft | 395 kts | 270° |
| 2026-04-30 10:23 | 32.24798 | -74.35121 | 35813 ft | 395 kts | 270° |
| 2026-04-30 10:24 | 32.24435 | -74.41557 | 35812 ft | 394 kts | 270° |
| 2026-04-30 10:24 | 32.24067 | -74.48036 | 35813 ft | 394 kts | 270° |
| 2026-04-30 10:25 | 32.23695 | -74.54499 | 35818 ft | 394 kts | 270° |
| 2026-04-30 10:25 | 32.23323 | -74.60925 | 35822 ft | 394 kts | 270° |
| 2026-04-30 10:26 | 32.22945 | -74.67390 | 35821 ft | 393 kts | 270° |
| 2026-04-30 10:26 | 32.22567 | -74.73812 | 35821 ft | 393 kts | 270° |
| 2026-04-30 10:27 | 32.22184 | -74.80257 | 35815 ft | 393 kts | 269° |
| 2026-04-30 10:27 | 32.21799 | -74.86681 | 35835 ft | 392 kts | 269° |
| 2026-04-30 10:28 | 32.21411 | -74.93112 | 35837 ft | 392 kts | 269° |
| 2026-04-30 10:28 | 32.21019 | -74.99532 | 35837 ft | 392 kts | 269° |
| 2026-04-30 10:29 | 32.20624 | -75.05947 | 35837 ft | 392 kts | 269° |
| 2026-04-30 10:29 | 32.20228 | -75.12324 | 35837 ft | 391 kts | 269° |
| 2026-04-30 10:30 | 32.19828 | -75.18738 | 35835 ft | 391 kts | 269° |
| 2026-04-30 10:30 | 32.19423 | -75.25150 | 35835 ft | 392 kts | 269° |
| 2026-04-30 10:31 | 32.19015 | -75.31570 | 35834 ft | 392 kts | 269° |
| 2026-04-30 10:31 | 32.18604 | -75.37984 | 35834 ft | 392 kts | 268° |
| 2026-04-30 10:32 | 32.18189 | -75.44409 | 35834 ft | 392 kts | 268° |
| 2026-04-30 10:32 | 32.17773 | -75.50794 | 35832 ft | 393 kts | 268° |
| 2026-04-30 10:33 | 32.17351 | -75.57239 | 35832 ft | 393 kts | 268° |
| 2026-04-30 10:33 | 32.16926 | -75.63673 | 35827 ft | 393 kts | 268° |
| 2026-04-30 10:34 | 32.16496 | -75.70111 | 35819 ft | 393 kts | 268° |
| 2026-04-30 10:34 | 32.16066 | -75.76512 | 35819 ft | 393 kts | 268° |
| 2026-04-30 10:35 | 32.15632 | -75.82946 | 35819 ft | 394 kts | 268° |
| 2026-04-30 10:35 | 32.15192 | -75.89391 | 35819 ft | 394 kts | 268° |
| 2026-04-30 10:36 | 32.14749 | -75.95836 | 35819 ft | 394 kts | 268° |
| 2026-04-30 10:36 | 32.14302 | -76.02295 | 35819 ft | 394 kts | 268° |
| 2026-04-30 10:37 | 32.13852 | -76.08746 | 35819 ft | 394 kts | 268° |
| 2026-04-30 10:37 | 32.13399 | -76.15195 | 35819 ft | 394 kts | 268° |
| 2026-04-30 10:38 | 32.12945 | -76.21606 | 35819 ft | 394 kts | 268° |
| 2026-04-30 10:38 | 32.12485 | -76.28059 | 35819 ft | 394 kts | 268° |
| 2026-04-30 10:39 | 32.12022 | -76.34507 | 35819 ft | 394 kts | 268° |
| 2026-04-30 10:39 | 32.11556 | -76.40946 | 35819 ft | 394 kts | 268° |
| 2026-04-30 10:40 | 32.11088 | -76.47381 | 35819 ft | 393 kts | 268° |
| 2026-04-30 10:40 | 32.10620 | -76.53766 | 35820 ft | 393 kts | 268° |
| 2026-04-30 10:41 | 32.10146 | -76.60192 | 35820 ft | 393 kts | 267° |
| 2026-04-30 10:41 | 32.09668 | -76.66616 | 35821 ft | 392 kts | 268° |
| 2026-04-30 10:42 | 32.09188 | -76.73021 | 35837 ft | 392 kts | 268° |
| 2026-04-30 10:42 | 32.08705 | -76.79432 | 35838 ft | 392 kts | 268° |
| 2026-04-30 10:43 | 32.08220 | -76.85827 | 35839 ft | 391 kts | 267° |
| 2026-04-30 10:43 | 32.07731 | -76.92220 | 35839 ft | 391 kts | 267° |
| 2026-04-30 10:44 | 32.07447 | -76.98571 | 35843 ft | 389 kts | 272° |
| 2026-04-30 10:44 | 32.07869 | -77.04927 | 35843 ft | 388 kts | 277° |
| 2026-04-30 10:45 | 32.08613 | -77.11242 | 35835 ft | 388 kts | 279° |
| 2026-04-30 10:45 | 32.09458 | -77.17482 | 35831 ft | 388 kts | 279° |
| 2026-04-30 10:46 | 32.10336 | -77.23758 | 35830 ft | 388 kts | 279° |
| 2026-04-30 10:46 | 32.11212 | -77.30035 | 35830 ft | 387 kts | 280° |
| 2026-04-30 10:47 | 32.12081 | -77.36316 | 35830 ft | 387 kts | 279° |
| 2026-04-30 10:47 | 32.12940 | -77.42601 | 35830 ft | 387 kts | 279° |
| 2026-04-30 10:48 | 32.13784 | -77.48842 | 35830 ft | 387 kts | 279° |
| 2026-04-30 10:48 | 32.14628 | -77.55128 | 35830 ft | 388 kts | 279° |
| 2026-04-30 10:49 | 32.15468 | -77.61424 | 35830 ft | 388 kts | 279° |
| 2026-04-30 10:49 | 32.16303 | -77.67705 | 35830 ft | 388 kts | 279° |
| 2026-04-30 10:50 | 32.17135 | -77.74002 | 35830 ft | 388 kts | 279° |
| 2026-04-30 10:50 | 32.17958 | -77.80266 | 35829 ft | 388 kts | 279° |
| 2026-04-30 10:51 | 32.18931 | -77.86537 | 35830 ft | 388 kts | 283° |
| 2026-04-30 10:51 | 32.20482 | -77.92656 | 35829 ft | 389 kts | 288° |
| 2026-04-30 10:52 | 32.22356 | -77.98649 | 35827 ft | 389 kts | 290° |
| 2026-04-30 10:52 | 32.24370 | -78.04606 | 35824 ft | 389 kts | 291° |
| 2026-04-30 10:53 | 32.26344 | -78.10393 | 35402 ft | 371 kts | 290° |
| 2026-04-30 10:53 | 32.27284 | -78.13192 | 34961 ft | 361 kts | 290° |
| 2026-04-30 10:53 | 32.28222 | -78.15910 | 34510 ft | 350 kts | 290° |
| 2026-04-30 10:54 | 32.29129 | -78.18528 | 34058 ft | 340 kts | 290° |
| 2026-04-30 10:54 | 32.30023 | -78.21093 | 33605 ft | 335 kts | 290° |
| 2026-04-30 10:54 | 32.30904 | -78.23596 | 33159 ft | 333 kts | 290° |
| 2026-04-30 10:54 | 32.31799 | -78.26120 | 32707 ft | 331 kts | 290° |
| 2026-04-30 10:55 | 32.32697 | -78.28628 | 32255 ft | 329 kts | 290° |
| 2026-04-30 10:55 | 32.33598 | -78.31126 | 31801 ft | 328 kts | 290° |
| 2026-04-30 10:55 | 32.34488 | -78.33574 | 31354 ft | 326 kts | 290° |
| 2026-04-30 10:55 | 32.35389 | -78.36033 | 30903 ft | 325 kts | 290° |
| 2026-04-30 10:56 | 32.36296 | -78.38485 | 30451 ft | 324 kts | 290° |
| 2026-04-30 10:56 | 32.37205 | -78.40918 | 30000 ft | 323 kts | 290° |
| 2026-04-30 10:56 | 32.38119 | -78.43340 | 29548 ft | 321 kts | 290° |
| 2026-04-30 10:56 | 32.39034 | -78.45750 | 29097 ft | 320 kts | 290° |
| 2026-04-30 10:57 | 32.39940 | -78.48120 | 28652 ft | 319 kts | 290° |
| 2026-04-30 10:57 | 32.40860 | -78.50517 | 28200 ft | 318 kts | 290° |
| 2026-04-30 10:57 | 32.41776 | -78.52892 | 27750 ft | 317 kts | 290° |
| 2026-04-30 10:57 | 32.42695 | -78.55261 | 27298 ft | 315 kts | 290° |
| 2026-04-30 10:58 | 32.43573 | -78.57633 | 26845 ft | 312 kts | 287° |
| 2026-04-30 10:58 | 32.44182 | -78.60086 | 26400 ft | 309 kts | 281° |
| 2026-04-30 10:58 | 32.44643 | -78.62540 | 25959 ft | 307 kts | 279° |
| 2026-04-30 10:58 | 32.45090 | -78.65019 | 25508 ft | 306 kts | 279° |
| 2026-04-30 10:59 | 32.45572 | -78.67454 | 25061 ft | 305 kts | 280° |
| 2026-04-30 10:59 | 32.46120 | -78.69894 | 24610 ft | 304 kts | 282° |
| 2026-04-30 10:59 | 32.46722 | -78.72277 | 24164 ft | 304 kts | 283° |
| 2026-04-30 10:59 | 32.47383 | -78.74657 | 23713 ft | 303 kts | 284° |
| 2026-04-30 11:00 | 32.48079 | -78.76992 | 23266 ft | 302 kts | 285° |
| 2026-04-30 11:00 | 32.48811 | -78.79336 | 22813 ft | 301 kts | 286° |
| 2026-04-30 11:00 | 32.49544 | -78.81618 | 22369 ft | 299 kts | 286° |
| 2026-04-30 11:00 | 32.50287 | -78.83913 | 21918 ft | 297 kts | 287° |
| 2026-04-30 11:01 | 32.51028 | -78.86191 | 21468 ft | 295 kts | 287° |
| 2026-04-30 11:01 | 32.51764 | -78.88454 | 21016 ft | 293 kts | 287° |
| 2026-04-30 11:01 | 32.52490 | -78.90690 | 20568 ft | 285 kts | 287° |
| 2026-04-30 11:01 | 32.53191 | -78.92848 | 20090 ft | 283 kts | 286° |
| 2026-04-30 11:02 | 32.53898 | -78.95029 | 19592 ft | 283 kts | 287° |
| 2026-04-30 11:02 | 32.54549 | -78.97220 | 19095 ft | 281 kts | 284° |
| 2026-04-30 11:02 | 32.55121 | -78.99428 | 18599 ft | 279 kts | 282° |
| 2026-04-30 11:02 | 32.55662 | -79.01639 | 18098 ft | 278 kts | 282° |
| 2026-04-30 11:03 | 32.56187 | -79.03840 | 17598 ft | 276 kts | 282° |
| 2026-04-30 11:03 | 32.56697 | -79.06009 | 17101 ft | 275 kts | 282° |
| 2026-04-30 11:03 | 32.57204 | -79.08197 | 16598 ft | 273 kts | 282° |
| 2026-04-30 11:04 | 32.58194 | -79.12532 | 15595 ft | 271 kts | 282° |
| 2026-04-30 11:04 | 32.58673 | -79.14660 | 15100 ft | 270 kts | 282° |
| 2026-04-30 11:04 | 32.59153 | -79.16807 | 14599 ft | 268 kts | 282° |
| 2026-04-30 11:04 | 32.59630 | -79.18954 | 14095 ft | 267 kts | 282° |
| 2026-04-30 11:05 | 32.60092 | -79.21056 | 13601 ft | 266 kts | 282° |
| 2026-04-30 11:05 | 32.60553 | -79.23181 | 13099 ft | 265 kts | 282° |
| 2026-04-30 11:05 | 32.61007 | -79.25295 | 12613 ft | 264 kts | 282° |
| 2026-04-30 11:05 | 32.61368 | -79.26975 | 12256 ft | 263 kts | 282° |
| 2026-04-30 11:06 | 32.61761 | -79.28710 | 11882 ft | 262 kts | 283° |
| 2026-04-30 11:06 | 32.62074 | -79.30089 | 11583 ft | 261 kts | 283° |
| 2026-04-30 11:06 | 32.62692 | -79.32850 | 10984 ft | 260 kts | 283° |
| 2026-04-30 11:06 | 32.63003 | -79.34259 | 10677 ft | 259 kts | 283° |
| 2026-04-30 11:07 | 32.63446 | -79.36301 | 10232 ft | 258 kts | 283° |
| 2026-04-30 11:07 | 32.63888 | -79.38371 | 9780 ft | 257 kts | 283° |
| 2026-04-30 11:07 | 32.64317 | -79.40427 | 9330 ft | 257 kts | 283° |
| 2026-04-30 11:07 | 32.64739 | -79.42481 | 8879 ft | 256 kts | 283° |
| 2026-04-30 11:08 | 32.65153 | -79.44531 | 8429 ft | 255 kts | 283° |
| 2026-04-30 11:08 | 32.65697 | -79.47232 | 7833 ft | 253 kts | 283° |
| 2026-04-30 11:08 | 32.65971 | -79.48598 | 7529 ft | 252 kts | 283° |
| 2026-04-30 11:08 | 32.66371 | -79.50591 | 7084 ft | 250 kts | 283° |
| 2026-04-30 11:09 | 32.66773 | -79.52593 | 6632 ft | 248 kts | 283° |
| 2026-04-30 11:09 | 32.67172 | -79.54580 | 6182 ft | 246 kts | 283° |
| 2026-04-30 11:09 | 32.67569 | -79.56553 | 5730 ft | 244 kts | 283° |
| 2026-04-30 11:09 | 32.67962 | -79.58512 | 5277 ft | 243 kts | 283° |
| 2026-04-30 11:10 | 32.68346 | -79.60437 | 4831 ft | 242 kts | 283° |
| 2026-04-30 11:10 | 32.68729 | -79.62381 | 4432 ft | 239 kts | 283° |
| 2026-04-30 11:10 | 32.69100 | -79.64280 | 4384 ft | 236 kts | 283° |
| 2026-04-30 11:10 | 32.69455 | -79.66189 | 4342 ft | 236 kts | 281° |
| 2026-04-30 11:11 | 32.69671 | -79.68118 | 4344 ft | 234 kts | 276° |
| 2026-04-30 11:11 | 32.69757 | -79.69975 | 4334 ft | 221 kts | 271° |
| 2026-04-30 11:11 | 32.69714 | -79.71772 | 4335 ft | 214 kts | 268° |
| 2026-04-30 11:11 | 32.69627 | -79.73525 | 4332 ft | 210 kts | 267° |
| 2026-04-30 11:12 | 32.69529 | -79.75225 | 4334 ft | 207 kts | 267° |
| 2026-04-30 11:12 | 32.69427 | -79.76929 | 4336 ft | 205 kts | 267° |
| 2026-04-30 11:12 | 32.69326 | -79.78594 | 4337 ft | 204 kts | 267° |
| 2026-04-30 11:12 | 32.69224 | -79.80275 | 4342 ft | 203 kts | 267° |
| 2026-04-30 11:13 | 32.69123 | -79.81949 | 4344 ft | 203 kts | 267° |
| 2026-04-30 11:13 | 32.69023 | -79.83622 | 4277 ft | 205 kts | 267° |
| 2026-04-30 11:13 | 32.69062 | -79.85312 | 4029 ft | 204 kts | 277° |
| 2026-04-30 11:13 | 32.69503 | -79.86901 | 3947 ft | 202 kts | 292° |
| 2026-04-30 11:14 | 32.70197 | -79.88342 | 3865 ft | 203 kts | 303° |
| 2026-04-30 11:14 | 32.71181 | -79.89555 | 3859 ft | 205 kts | 316° |
| 2026-04-30 11:14 | 32.72345 | -79.90544 | 3872 ft | 205 kts | 324° |
| 2026-04-30 11:14 | 32.73563 | -79.91407 | 3839 ft | 207 kts | 327° |
| 2026-04-30 11:15 | 32.74787 | -79.92254 | 3512 ft | 198 kts | 327° |
| 2026-04-30 11:15 | 32.75930 | -79.93086 | 3176 ft | 187 kts | 326° |
| 2026-04-30 11:15 | 32.76994 | -79.93902 | 2885 ft | 180 kts | 325° |
| 2026-04-30 11:15 | 32.78029 | -79.94710 | 2623 ft | 174 kts | 325° |
| 2026-04-30 11:16 | 32.79010 | -79.95468 | 2402 ft | 168 kts | 325° |
| 2026-04-30 11:16 | 32.79976 | -79.96204 | 2201 ft | 163 kts | 325° |
| 2026-04-30 11:16 | 32.80899 | -79.96905 | 2083 ft | 153 kts | 325° |
| 2026-04-30 11:16 | 32.81807 | -79.97599 | 1847 ft | 157 kts | 325° |
| 2026-04-30 11:17 | 32.82728 | -79.98304 | 1619 ft | 157 kts | 325° |
| 2026-04-30 11:17 | 32.83653 | -79.99008 | 1383 ft | 159 kts | 326° |
| 2026-04-30 11:17 | 32.84582 | -79.99718 | 1158 ft | 159 kts | 326° |
| 2026-04-30 11:17 | 32.85510 | -80.00419 | 939 ft | 160 kts | 326° |
| 2026-04-30 11:18 | 32.86455 | -80.01137 | 722 ft | 160 kts | 326° |
| 2026-04-30 11:18 | 32.88319 | -80.02566 | 334 ft | 159 kts | 326° |
| 2026-04-30 11:18 | 32.89146 | -80.03182 | 117 ft | 129 kts | 325° |
| 2026-04-30 11:19 | 32.89887 | -80.03746 | 57 ft | 115 kts | 325° |
| 2026-04-30 11:19 | 32.90412 | -80.04147 | 57 ft | 54 kts | 329° |
| 2026-04-30 11:19 | 32.90687 | -80.04347 | 57 ft | 34 kts | 328° |
| 2026-04-30 11:19 | 32.90798 | -80.04475 | 57 ft | 13 kts | 245° |
| 2026-04-30 11:20 | 32.90743 | -80.04565 | 57 ft | 13 kts | 232° |
| 2026-04-30 11:20 | 32.90677 | -80.04636 | 57 ft | 12 kts | 190° |
| 2026-04-30 11:20 | 32.90600 | -80.04598 | 57 ft | 14 kts | 150° |
| 2026-04-30 11:20 | 32.90509 | -80.04572 | 57 ft | 12 kts | 179° |
| 2026-04-30 11:21 | 32.90404 | -80.04570 | 57 ft | 18 kts | 179° |
| 2026-04-30 11:21 | 32.90261 | -80.04567 | 57 ft | 23 kts | 178° |
| 2026-04-30 11:21 | 32.90192 | -80.04643 | 57 ft | 10 kts | 262° |
| 2026-04-30 11:21 | 32.90186 | -80.04693 | 57 ft | 2 kts | 262° |
| 2026-04-30 11:22 | 32.90186 | -80.04695 | 57 ft | 0 kts | 262° |